sensor_id;sensor_type;location;lat;lon;timestamp;P1;durP1;ratioP1;P2;durP2;ratioP2
6979;SDS011;3530;52.832;10.680;2022-08-19T00:00:19;7.38;;;6.60;;
6979;SDS011;3530;52.832;10.680;2022-08-19T00:02:45;7.72;;;6.60;;
6979;SDS011;3530;52.832;10.680;2022-08-19T00:05:12;8.23;;;7.03;;
6979;SDS011;3530;52.832;10.680;2022-08-19T00:07:38;10.40;;;6.50;;
6979;SDS011;3530;52.832;10.680;2022-08-19T00:10:04;11.70;;;8.27;;
6979;SDS011;3530;52.832;10.680;2022-08-19T00:12:33;9.95;;;7.15;;
6979;SDS011;3530;52.832;10.680;2022-08-19T00:14:58;9.20;;;7.90;;
6979;SDS011;3530;52.832;10.680;2022-08-19T00:17:24;10.88;;;7.75;;
6979;SDS011;3530;52.832;10.680;2022-08-19T00:19:49;11.35;;;7.03;;
6979;SDS011;3530;52.832;10.680;2022-08-19T00:22:15;11.07;;;6.60;;
6979;SDS011;3530;52.832;10.680;2022-08-19T00:24:42;7.97;;;6.63;;
6979;SDS011;3530;52.832;10.680;2022-08-19T00:27:08;7.65;;;6.18;;
6979;SDS011;3530;52.832;10.680;2022-08-19T00:29:34;9.43;;;7.55;;
6979;SDS011;3530;52.832;10.680;2022-08-19T00:31:59;10.30;;;7.63;;
6979;SDS011;3530;52.832;10.680;2022-08-19T00:34:25;9.95;;;7.03;;
6979;SDS011;3530;52.832;10.680;2022-08-19T00:36:52;8.20;;;6.28;;
6979;SDS011;3530;52.832;10.680;2022-08-19T00:39:18;9.80;;;8.40;;
6979;SDS011;3530;52.832;10.680;2022-08-19T00:41:44;9.00;;;6.78;;
6979;SDS011;3530;52.832;10.680;2022-08-19T00:44:14;8.82;;;7.90;;
6979;SDS011;3530;52.832;10.680;2022-08-19T00:46:43;10.50;;;7.30;;
6979;SDS011;3530;52.832;10.680;2022-08-19T00:49:11;6.55;;;5.60;;
6979;SDS011;3530;52.832;10.680;2022-08-19T00:51:41;7.43;;;6.70;;
6979;SDS011;3530;52.832;10.680;2022-08-19T00:54:08;8.05;;;6.65;;
6979;SDS011;3530;52.832;10.680;2022-08-19T00:56:34;8.15;;;6.32;;
6979;SDS011;3530;52.832;10.680;2022-08-19T00:59:00;8.63;;;6.35;;
6979;SDS011;3530;52.832;10.680;2022-08-19T01:01:26;7.97;;;6.22;;
6979;SDS011;3530;52.832;10.680;2022-08-19T01:03:52;6.93;;;5.93;;
6979;SDS011;3530;52.832;10.680;2022-08-19T01:06:17;6.18;;;5.68;;
6979;SDS011;3530;52.832;10.680;2022-08-19T01:08:42;6.78;;;5.70;;
6979;SDS011;3530;52.832;10.680;2022-08-19T01:11:08;8.88;;;6.43;;
6979;SDS011;3530;52.832;10.680;2022-08-19T01:13:33;7.65;;;7.00;;
6979;SDS011;3530;52.832;10.680;2022-08-19T01:16:03;9.65;;;6.78;;
6979;SDS011;3530;52.832;10.680;2022-08-19T01:18:31;6.22;;;5.70;;
6979;SDS011;3530;52.832;10.680;2022-08-19T01:20:58;10.85;;;7.60;;
6979;SDS011;3530;52.832;10.680;2022-08-19T01:23:25;7.50;;;6.65;;
6979;SDS011;3530;52.832;10.680;2022-08-19T01:26:07;9.05;;;7.07;;
6979;SDS011;3530;52.832;10.680;2022-08-19T01:28:35;10.45;;;6.68;;
6979;SDS011;3530;52.832;10.680;2022-08-19T01:31:02;10.70;;;7.35;;
6979;SDS011;3530;52.832;10.680;2022-08-19T01:33:28;12.02;;;8.45;;
6979;SDS011;3530;52.832;10.680;2022-08-19T01:36:03;7.63;;;6.72;;
6979;SDS011;3530;52.832;10.680;2022-08-19T01:38:29;12.63;;;6.60;;
6979;SDS011;3530;52.832;10.680;2022-08-19T01:40:56;9.10;;;8.10;;
6979;SDS011;3530;52.832;10.680;2022-08-19T01:43:23;11.88;;;7.55;;
6979;SDS011;3530;52.832;10.680;2022-08-19T01:45:49;6.88;;;6.20;;
6979;SDS011;3530;52.832;10.680;2022-08-19T01:48:16;9.60;;;7.50;;
6979;SDS011;3530;52.832;10.680;2022-08-19T01:50:41;9.77;;;7.03;;
6979;SDS011;3530;52.832;10.680;2022-08-19T01:53:09;7.82;;;6.65;;
6979;SDS011;3530;52.832;10.680;2022-08-19T01:55:36;9.90;;;7.22;;
6979;SDS011;3530;52.832;10.680;2022-08-19T01:58:03;10.68;;;7.47;;
6979;SDS011;3530;52.832;10.680;2022-08-19T02:00:30;11.95;;;6.35;;
6979;SDS011;3530;52.832;10.680;2022-08-19T02:02:57;8.65;;;6.70;;
6979;SDS011;3530;52.832;10.680;2022-08-19T02:05:22;6.53;;;5.32;;
6979;SDS011;3530;52.832;10.680;2022-08-19T02:07:48;10.75;;;7.38;;
6979;SDS011;3530;52.832;10.680;2022-08-19T02:10:15;8.90;;;6.47;;
6979;SDS011;3530;52.832;10.680;2022-08-19T02:12:46;8.27;;;6.75;;
6979;SDS011;3530;52.832;10.680;2022-08-19T02:15:11;7.30;;;5.45;;
6979;SDS011;3530;52.832;10.680;2022-08-19T02:17:37;6.43;;;5.72;;
6979;SDS011;3530;52.832;10.680;2022-08-19T02:20:02;8.88;;;6.07;;
6979;SDS011;3530;52.832;10.680;2022-08-19T02:22:28;12.00;;;6.13;;
6979;SDS011;3530;52.832;10.680;2022-08-19T02:24:54;7.43;;;5.95;;
6979;SDS011;3530;52.832;10.680;2022-08-19T02:27:20;7.32;;;6.28;;
6979;SDS011;3530;52.832;10.680;2022-08-19T02:29:47;8.32;;;6.45;;
6979;SDS011;3530;52.832;10.680;2022-08-19T02:32:13;6.78;;;6.10;;
6979;SDS011;3530;52.832;10.680;2022-08-19T02:34:39;6.85;;;6.15;;
6979;SDS011;3530;52.832;10.680;2022-08-19T02:37:05;9.32;;;5.78;;
6979;SDS011;3530;52.832;10.680;2022-08-19T02:39:30;6.80;;;5.80;;
6979;SDS011;3530;52.832;10.680;2022-08-19T02:41:56;6.05;;;5.40;;
6979;SDS011;3530;52.832;10.680;2022-08-19T02:44:21;8.95;;;6.45;;
6979;SDS011;3530;52.832;10.680;2022-08-19T02:46:47;9.60;;;6.15;;
6979;SDS011;3530;52.832;10.680;2022-08-19T02:49:12;8.27;;;5.70;;
6979;SDS011;3530;52.832;10.680;2022-08-19T02:51:41;6.53;;;5.90;;
6979;SDS011;3530;52.832;10.680;2022-08-19T02:54:11;7.35;;;5.63;;
6979;SDS011;3530;52.832;10.680;2022-08-19T02:56:38;6.30;;;4.72;;
6979;SDS011;3530;52.832;10.680;2022-08-19T02:59:05;6.22;;;5.70;;
6979;SDS011;3530;52.832;10.680;2022-08-19T03:01:33;6.57;;;5.65;;
6979;SDS011;3530;52.832;10.680;2022-08-19T03:03:59;5.93;;;5.32;;
6979;SDS011;3530;52.832;10.680;2022-08-19T03:06:26;6.93;;;5.95;;
6979;SDS011;3530;52.832;10.680;2022-08-19T03:08:53;6.18;;;5.50;;
6979;SDS011;3530;52.832;10.680;2022-08-19T03:11:22;5.82;;;5.03;;
6979;SDS011;3530;52.832;10.680;2022-08-19T03:13:49;6.93;;;6.22;;
6979;SDS011;3530;52.832;10.680;2022-08-19T03:16:15;9.05;;;5.95;;
6979;SDS011;3530;52.832;10.680;2022-08-19T03:18:42;12.65;;;5.82;;
6979;SDS011;3530;52.832;10.680;2022-08-19T03:21:08;7.07;;;5.95;;
6979;SDS011;3530;52.832;10.680;2022-08-19T03:23:33;7.40;;;5.05;;
6979;SDS011;3530;52.832;10.680;2022-08-19T03:26:04;6.90;;;5.10;;
6979;SDS011;3530;52.832;10.680;2022-08-19T03:28:31;5.75;;;5.07;;
6979;SDS011;3530;52.832;10.680;2022-08-19T03:30:57;6.95;;;5.88;;
6979;SDS011;3530;52.832;10.680;2022-08-19T03:33:28;7.88;;;5.20;;
6979;SDS011;3530;52.832;10.680;2022-08-19T03:38:40;6.38;;;5.63;;
6979;SDS011;3530;52.832;10.680;2022-08-19T03:41:08;7.43;;;5.15;;
6979;SDS011;3530;52.832;10.680;2022-08-19T03:43:37;10.25;;;5.75;;
6979;SDS011;3530;52.832;10.680;2022-08-19T03:46:07;7.72;;;6.40;;
6979;SDS011;3530;52.832;10.680;2022-08-19T03:48:34;5.30;;;4.72;;
6979;SDS011;3530;52.832;10.680;2022-08-19T03:51:00;6.43;;;5.78;;
6979;SDS011;3530;52.832;10.680;2022-08-19T03:53:26;6.28;;;5.68;;
6979;SDS011;3530;52.832;10.680;2022-08-19T03:55:52;7.53;;;6.68;;
6979;SDS011;3530;52.832;10.680;2022-08-19T03:58:18;6.90;;;5.57;;
6979;SDS011;3530;52.832;10.680;2022-08-19T04:00:44;5.32;;;4.80;;
6979;SDS011;3530;52.832;10.680;2022-08-19T04:03:10;6.53;;;5.28;;
6979;SDS011;3530;52.832;10.680;2022-08-19T04:05:35;6.75;;;5.88;;
6979;SDS011;3530;52.832;10.680;2022-08-19T04:08:03;10.32;;;7.63;;
6979;SDS011;3530;52.832;10.680;2022-08-19T04:10:31;10.65;;;6.75;;
6979;SDS011;3530;52.832;10.680;2022-08-19T04:13:00;7.90;;;7.15;;
6979;SDS011;3530;52.832;10.680;2022-08-19T04:15:25;9.10;;;6.00;;
6979;SDS011;3530;52.832;10.680;2022-08-19T04:17:52;8.23;;;6.63;;
6979;SDS011;3530;52.832;10.680;2022-08-19T04:20:18;8.40;;;5.60;;
6979;SDS011;3530;52.832;10.680;2022-08-19T04:22:43;10.07;;;5.97;;
6979;SDS011;3530;52.832;10.680;2022-08-19T04:25:08;7.75;;;6.10;;
6979;SDS011;3530;52.832;10.680;2022-08-19T04:27:34;5.10;;;4.45;;
6979;SDS011;3530;52.832;10.680;2022-08-19T04:30:00;9.13;;;6.20;;
6979;SDS011;3530;52.832;10.680;2022-08-19T04:32:25;7.03;;;5.93;;
6979;SDS011;3530;52.832;10.680;2022-08-19T04:34:50;10.00;;;6.93;;
6979;SDS011;3530;52.832;10.680;2022-08-19T04:37:16;7.82;;;6.40;;
6979;SDS011;3530;52.832;10.680;2022-08-19T04:39:41;5.30;;;4.80;;
6979;SDS011;3530;52.832;10.680;2022-08-19T04:42:25;7.43;;;5.35;;
6979;SDS011;3530;52.832;10.680;2022-08-19T04:45:07;6.40;;;5.78;;
6979;SDS011;3530;52.832;10.680;2022-08-19T04:47:35;9.07;;;6.35;;
6979;SDS011;3530;52.832;10.680;2022-08-19T04:50:02;9.32;;;6.35;;
6979;SDS011;3530;52.832;10.680;2022-08-19T04:52:28;6.13;;;5.47;;
6979;SDS011;3530;52.832;10.680;2022-08-19T04:54:55;6.05;;;5.55;;
6979;SDS011;3530;52.832;10.680;2022-08-19T04:57:21;8.30;;;6.55;;
6979;SDS011;3530;52.832;10.680;2022-08-19T04:59:46;9.07;;;6.32;;
6979;SDS011;3530;52.832;10.680;2022-08-19T05:02:11;8.82;;;6.60;;
6979;SDS011;3530;52.832;10.680;2022-08-19T05:04:37;6.93;;;6.20;;
6979;SDS011;3530;52.832;10.680;2022-08-19T05:07:05;6.15;;;5.18;;
6979;SDS011;3530;52.832;10.680;2022-08-19T05:09:35;9.82;;;6.30;;
6979;SDS011;3530;52.832;10.680;2022-08-19T05:12:00;6.93;;;5.20;;
6979;SDS011;3530;52.832;10.680;2022-08-19T05:14:26;7.65;;;6.93;;
6979;SDS011;3530;52.832;10.680;2022-08-19T05:16:51;9.43;;;7.32;;
6979;SDS011;3530;52.832;10.680;2022-08-19T05:19:17;11.82;;;7.28;;
6979;SDS011;3530;52.832;10.680;2022-08-19T05:22:01;7.28;;;6.40;;
6979;SDS011;3530;52.832;10.680;2022-08-19T05:24:45;10.27;;;7.50;;
6979;SDS011;3530;52.832;10.680;2022-08-19T05:27:10;13.00;;;8.05;;
6979;SDS011;3530;52.832;10.680;2022-08-19T05:29:35;8.00;;;6.30;;
6979;SDS011;3530;52.832;10.680;2022-08-19T05:32:03;21.50;;;9.60;;
6979;SDS011;3530;52.832;10.680;2022-08-19T05:34:30;21.98;;;9.70;;
6979;SDS011;3530;52.832;10.680;2022-08-19T05:36:56;14.27;;;8.50;;
6979;SDS011;3530;52.832;10.680;2022-08-19T05:39:23;16.00;;;8.50;;
6979;SDS011;3530;52.832;10.680;2022-08-19T05:42:01;10.18;;;7.68;;
6979;SDS011;3530;52.832;10.680;2022-08-19T05:44:29;12.27;;;7.10;;
6979;SDS011;3530;52.832;10.680;2022-08-19T05:46:56;8.90;;;7.03;;
6979;SDS011;3530;52.832;10.680;2022-08-19T05:49:22;10.20;;;6.75;;
6979;SDS011;3530;52.832;10.680;2022-08-19T05:51:48;11.25;;;7.95;;
6979;SDS011;3530;52.832;10.680;2022-08-19T05:54:14;8.35;;;6.70;;
6979;SDS011;3530;52.832;10.680;2022-08-19T05:56:40;12.23;;;8.07;;
6979;SDS011;3530;52.832;10.680;2022-08-19T05:59:07;9.07;;;6.75;;
6979;SDS011;3530;52.832;10.680;2022-08-19T06:01:35;12.85;;;6.65;;
6979;SDS011;3530;52.832;10.680;2022-08-19T06:04:01;10.60;;;7.07;;
6979;SDS011;3530;52.832;10.680;2022-08-19T06:06:27;8.27;;;5.55;;
6979;SDS011;3530;52.832;10.680;2022-08-19T06:08:53;11.93;;;7.28;;
6979;SDS011;3530;52.832;10.680;2022-08-19T06:11:23;9.43;;;7.22;;
6979;SDS011;3530;52.832;10.680;2022-08-19T06:14:00;13.05;;;8.02;;
6979;SDS011;3530;52.832;10.680;2022-08-19T06:16:32;10.85;;;8.25;;
6979;SDS011;3530;52.832;10.680;2022-08-19T06:19:00;7.68;;;6.70;;
6979;SDS011;3530;52.832;10.680;2022-08-19T06:21:28;10.57;;;6.65;;
6979;SDS011;3530;52.832;10.680;2022-08-19T06:23:54;10.20;;;7.57;;
6979;SDS011;3530;52.832;10.680;2022-08-19T06:26:20;8.45;;;6.28;;
6979;SDS011;3530;52.832;10.680;2022-08-19T06:28:47;7.47;;;6.28;;
6979;SDS011;3530;52.832;10.680;2022-08-19T06:31:16;8.75;;;6.43;;
6979;SDS011;3530;52.832;10.680;2022-08-19T06:33:46;9.65;;;6.70;;
6979;SDS011;3530;52.832;10.680;2022-08-19T06:36:16;13.68;;;8.73;;
6979;SDS011;3530;52.832;10.680;2022-08-19T06:38:42;10.25;;;8.27;;
6979;SDS011;3530;52.832;10.680;2022-08-19T06:41:08;9.68;;;7.90;;
6979;SDS011;3530;52.832;10.680;2022-08-19T06:43:33;13.57;;;9.40;;
6979;SDS011;3530;52.832;10.680;2022-08-19T06:45:59;14.15;;;9.23;;
6979;SDS011;3530;52.832;10.680;2022-08-19T06:48:25;9.15;;;7.15;;
6979;SDS011;3530;52.832;10.680;2022-08-19T06:50:51;11.32;;;7.57;;
6979;SDS011;3530;52.832;10.680;2022-08-19T06:53:16;15.18;;;9.48;;
6979;SDS011;3530;52.832;10.680;2022-08-19T06:55:44;11.10;;;8.07;;
6979;SDS011;3530;52.832;10.680;2022-08-19T06:58:10;16.88;;;10.27;;
6979;SDS011;3530;52.832;10.680;2022-08-19T07:00:35;14.10;;;9.52;;
6979;SDS011;3530;52.832;10.680;2022-08-19T07:03:01;10.20;;;7.85;;
6979;SDS011;3530;52.832;10.680;2022-08-19T07:05:27;17.13;;;10.23;;
6979;SDS011;3530;52.832;10.680;2022-08-19T07:07:52;15.75;;;10.50;;
6979;SDS011;3530;52.832;10.680;2022-08-19T07:10:18;15.63;;;9.25;;
6979;SDS011;3530;52.832;10.680;2022-08-19T07:12:44;15.43;;;10.65;;
6979;SDS011;3530;52.832;10.680;2022-08-19T07:15:09;13.90;;;8.80;;
6979;SDS011;3530;52.832;10.680;2022-08-19T07:17:35;13.68;;;9.73;;
6979;SDS011;3530;52.832;10.680;2022-08-19T07:20:03;12.68;;;9.27;;
6979;SDS011;3530;52.832;10.680;2022-08-19T07:22:31;14.40;;;10.40;;
6979;SDS011;3530;52.832;10.680;2022-08-19T07:24:57;14.75;;;9.90;;
6979;SDS011;3530;52.832;10.680;2022-08-19T07:27:23;13.93;;;9.35;;
6979;SDS011;3530;52.832;10.680;2022-08-19T07:29:48;11.52;;;8.27;;
6979;SDS011;3530;52.832;10.680;2022-08-19T07:32:13;16.98;;;10.77;;
6979;SDS011;3530;52.832;10.680;2022-08-19T07:34:39;13.07;;;9.98;;
6979;SDS011;3530;52.832;10.680;2022-08-19T07:37:05;10.32;;;6.65;;
6979;SDS011;3530;52.832;10.680;2022-08-19T07:39:32;12.52;;;8.95;;
6979;SDS011;3530;52.832;10.680;2022-08-19T07:41:59;14.93;;;10.10;;
6979;SDS011;3530;52.832;10.680;2022-08-19T07:44:25;15.90;;;9.75;;
6979;SDS011;3530;52.832;10.680;2022-08-19T07:46:53;12.27;;;7.55;;
6979;SDS011;3530;52.832;10.680;2022-08-19T07:49:20;13.95;;;9.38;;
6979;SDS011;3530;52.832;10.680;2022-08-19T07:51:48;15.38;;;9.15;;
6979;SDS011;3530;52.832;10.680;2022-08-19T07:54:15;9.30;;;7.68;;
6979;SDS011;3530;52.832;10.680;2022-08-19T07:56:41;12.95;;;8.50;;
6979;SDS011;3530;52.832;10.680;2022-08-19T07:59:06;12.25;;;9.38;;
6979;SDS011;3530;52.832;10.680;2022-08-19T08:01:33;15.02;;;8.05;;
6979;SDS011;3530;52.832;10.680;2022-08-19T08:03:59;14.20;;;9.68;;
6979;SDS011;3530;52.832;10.680;2022-08-19T08:06:43;11.43;;;8.35;;
6979;SDS011;3530;52.832;10.680;2022-08-19T08:09:31;14.77;;;9.07;;
6979;SDS011;3530;52.832;10.680;2022-08-19T08:12:06;12.07;;;7.35;;
6979;SDS011;3530;52.832;10.680;2022-08-19T08:14:54;11.80;;;7.40;;
6979;SDS011;3530;52.832;10.680;2022-08-19T08:17:21;14.98;;;9.20;;
6979;SDS011;3530;52.832;10.680;2022-08-19T08:19:48;14.48;;;9.63;;
6979;SDS011;3530;52.832;10.680;2022-08-19T08:22:16;13.63;;;8.45;;
6979;SDS011;3530;52.832;10.680;2022-08-19T08:25:06;13.25;;;8.38;;
6979;SDS011;3530;52.832;10.680;2022-08-19T08:27:39;12.80;;;8.25;;
6979;SDS011;3530;52.832;10.680;2022-08-19T08:30:09;16.08;;;8.40;;
6979;SDS011;3530;52.832;10.680;2022-08-19T08:32:42;13.50;;;9.57;;
6979;SDS011;3530;52.832;10.680;2022-08-19T08:35:09;11.23;;;7.32;;
6979;SDS011;3530;52.832;10.680;2022-08-19T08:37:37;18.85;;;10.95;;
6979;SDS011;3530;52.832;10.680;2022-08-19T08:40:06;12.55;;;8.07;;
6979;SDS011;3530;52.832;10.680;2022-08-19T08:42:47;13.95;;;9.30;;
6979;SDS011;3530;52.832;10.680;2022-08-19T08:45:28;18.02;;;9.65;;
6979;SDS011;3530;52.832;10.680;2022-08-19T08:47:55;16.10;;;9.95;;
6979;SDS011;3530;52.832;10.680;2022-08-19T08:50:25;14.95;;;8.82;;
6979;SDS011;3530;52.832;10.680;2022-08-19T08:52:55;19.83;;;10.75;;
6979;SDS011;3530;52.832;10.680;2022-08-19T08:55:23;16.95;;;10.38;;
6979;SDS011;3530;52.832;10.680;2022-08-19T09:00:42;15.10;;;9.30;;
6979;SDS011;3530;52.832;10.680;2022-08-19T09:03:17;13.50;;;8.32;;
6979;SDS011;3530;52.832;10.680;2022-08-19T09:11:25;13.45;;;9.70;;
6979;SDS011;3530;52.832;10.680;2022-08-19T09:17:10;14.25;;;8.77;;
6979;SDS011;3530;52.832;10.680;2022-08-19T09:19:51;10.65;;;7.55;;
6979;SDS011;3530;52.832;10.680;2022-08-19T09:22:20;11.95;;;8.73;;
6979;SDS011;3530;52.832;10.680;2022-08-19T09:24:50;17.10;;;10.15;;
6979;SDS011;3530;52.832;10.680;2022-08-19T09:27:17;12.38;;;6.93;;
6979;SDS011;3530;52.832;10.680;2022-08-19T09:29:43;12.68;;;8.60;;
6979;SDS011;3530;52.832;10.680;2022-08-19T09:32:08;11.80;;;7.82;;
6979;SDS011;3530;52.832;10.680;2022-08-19T09:34:34;13.18;;;8.95;;
6979;SDS011;3530;52.832;10.680;2022-08-19T09:37:02;10.80;;;8.50;;
6979;SDS011;3530;52.832;10.680;2022-08-19T09:39:27;11.00;;;7.47;;
6979;SDS011;3530;52.832;10.680;2022-08-19T09:41:53;15.85;;;10.75;;
6979;SDS011;3530;52.832;10.680;2022-08-19T09:44:18;11.40;;;7.75;;
6979;SDS011;3530;52.832;10.680;2022-08-19T09:46:45;10.50;;;7.15;;
6979;SDS011;3530;52.832;10.680;2022-08-19T09:49:12;10.77;;;8.93;;
6979;SDS011;3530;52.832;10.680;2022-08-19T09:51:37;11.63;;;9.23;;
6979;SDS011;3530;52.832;10.680;2022-08-19T09:54:02;13.23;;;9.02;;
6979;SDS011;3530;52.832;10.680;2022-08-19T09:56:29;11.23;;;7.80;;
6979;SDS011;3530;52.832;10.680;2022-08-19T09:59:00;12.07;;;8.70;;
6979;SDS011;3530;52.832;10.680;2022-08-19T10:01:27;13.18;;;8.98;;
6979;SDS011;3530;52.832;10.680;2022-08-19T10:03:54;12.07;;;8.60;;
6979;SDS011;3530;52.832;10.680;2022-08-19T10:06:21;11.65;;;6.80;;
6979;SDS011;3530;52.832;10.680;2022-08-19T10:08:47;11.55;;;7.90;;
6979;SDS011;3530;52.832;10.680;2022-08-19T10:11:13;10.07;;;7.18;;
6979;SDS011;3530;52.832;10.680;2022-08-19T10:13:41;11.55;;;7.53;;
6979;SDS011;3530;52.832;10.680;2022-08-19T10:16:08;11.23;;;8.25;;
6979;SDS011;3530;52.832;10.680;2022-08-19T10:18:35;11.40;;;7.93;;
6979;SDS011;3530;52.832;10.680;2022-08-19T10:21:06;11.48;;;6.82;;
6979;SDS011;3530;52.832;10.680;2022-08-19T10:23:34;9.90;;;7.22;;
6979;SDS011;3530;52.832;10.680;2022-08-19T10:26:04;9.10;;;7.30;;
6979;SDS011;3530;52.832;10.680;2022-08-19T10:28:34;13.02;;;7.57;;
6979;SDS011;3530;52.832;10.680;2022-08-19T10:31:07;13.00;;;8.02;;
6979;SDS011;3530;52.832;10.680;2022-08-19T10:33:35;12.77;;;7.70;;
6979;SDS011;3530;52.832;10.680;2022-08-19T10:36:09;9.48;;;7.53;;
6979;SDS011;3530;52.832;10.680;2022-08-19T10:38:36;13.40;;;8.23;;
6979;SDS011;3530;52.832;10.680;2022-08-19T10:41:09;10.95;;;6.63;;
6979;SDS011;3530;52.832;10.680;2022-08-19T10:43:36;6.72;;;5.93;;
6979;SDS011;3530;52.832;10.680;2022-08-19T10:46:03;9.73;;;6.57;;
6979;SDS011;3530;52.832;10.680;2022-08-19T10:48:30;9.13;;;6.53;;
6979;SDS011;3530;52.832;10.680;2022-08-19T10:50:56;11.43;;;6.82;;
6979;SDS011;3530;52.832;10.680;2022-08-19T10:53:41;8.20;;;6.82;;
6979;SDS011;3530;52.832;10.680;2022-08-19T10:56:06;9.85;;;5.93;;
6979;SDS011;3530;52.832;10.680;2022-08-19T10:58:50;9.50;;;8.20;;
6979;SDS011;3530;52.832;10.680;2022-08-19T11:01:15;7.43;;;6.35;;
6979;SDS011;3530;52.832;10.680;2022-08-19T11:03:43;10.88;;;8.43;;
6979;SDS011;3530;52.832;10.680;2022-08-19T11:06:10;8.43;;;5.95;;
6979;SDS011;3530;52.832;10.680;2022-08-19T11:08:36;10.13;;;7.50;;
6979;SDS011;3530;52.832;10.680;2022-08-19T11:11:03;18.02;;;9.25;;
6979;SDS011;3530;52.832;10.680;2022-08-19T11:13:31;12.20;;;8.68;;
6979;SDS011;3530;52.832;10.680;2022-08-19T11:18:33;10.98;;;7.47;;
6979;SDS011;3530;52.832;10.680;2022-08-19T11:21:08;13.25;;;8.75;;
6979;SDS011;3530;52.832;10.680;2022-08-19T11:23:45;16.60;;;9.45;;
6979;SDS011;3530;52.832;10.680;2022-08-19T11:26:12;9.13;;;6.97;;
6979;SDS011;3530;52.832;10.680;2022-08-19T11:28:38;14.55;;;8.60;;
6979;SDS011;3530;52.832;10.680;2022-08-19T11:31:03;12.13;;;8.32;;
6979;SDS011;3530;52.832;10.680;2022-08-19T11:33:30;10.15;;;6.70;;
6979;SDS011;3530;52.832;10.680;2022-08-19T11:35:59;13.45;;;9.27;;
6979;SDS011;3530;52.832;10.680;2022-08-19T11:38:25;11.27;;;8.18;;
6979;SDS011;3530;52.832;10.680;2022-08-19T11:40:58;10.07;;;7.03;;
6979;SDS011;3530;52.832;10.680;2022-08-19T11:43:25;11.48;;;8.65;;
6979;SDS011;3530;52.832;10.680;2022-08-19T11:45:52;8.63;;;6.65;;
6979;SDS011;3530;52.832;10.680;2022-08-19T11:48:18;16.17;;;9.43;;
6979;SDS011;3530;52.832;10.680;2022-08-19T11:50:46;10.63;;;7.60;;
6979;SDS011;3530;52.832;10.680;2022-08-19T11:53:12;13.68;;;9.02;;
6979;SDS011;3530;52.832;10.680;2022-08-19T11:55:38;12.85;;;8.57;;
6979;SDS011;3530;52.832;10.680;2022-08-19T11:58:07;13.35;;;9.25;;
6979;SDS011;3530;52.832;10.680;2022-08-19T12:00:33;10.20;;;7.38;;
6979;SDS011;3530;52.832;10.680;2022-08-19T12:03:02;13.93;;;8.40;;
6979;SDS011;3530;52.832;10.680;2022-08-19T12:05:27;11.15;;;7.10;;
6979;SDS011;3530;52.832;10.680;2022-08-19T12:07:53;7.32;;;6.43;;
6979;SDS011;3530;52.832;10.680;2022-08-19T12:10:19;8.90;;;6.53;;
6979;SDS011;3530;52.832;10.680;2022-08-19T12:12:45;12.27;;;7.95;;
6979;SDS011;3530;52.832;10.680;2022-08-19T12:15:11;10.88;;;7.43;;
6979;SDS011;3530;52.832;10.680;2022-08-19T12:17:37;6.43;;;5.82;;
6979;SDS011;3530;52.832;10.680;2022-08-19T12:20:03;10.98;;;8.10;;
6979;SDS011;3530;52.832;10.680;2022-08-19T12:22:29;8.98;;;7.18;;
6979;SDS011;3530;52.832;10.680;2022-08-19T12:24:55;13.45;;;8.27;;
6979;SDS011;3530;52.832;10.680;2022-08-19T12:27:20;9.18;;;7.22;;
6979;SDS011;3530;52.832;10.680;2022-08-19T12:29:46;8.43;;;6.47;;
6979;SDS011;3530;52.832;10.680;2022-08-19T12:32:12;11.68;;;9.55;;
6979;SDS011;3530;52.832;10.680;2022-08-19T12:34:37;11.07;;;8.45;;
6979;SDS011;3530;52.832;10.680;2022-08-19T12:37:03;16.85;;;10.82;;
6979;SDS011;3530;52.832;10.680;2022-08-19T12:39:29;12.40;;;9.65;;
6979;SDS011;3530;52.832;10.680;2022-08-19T12:41:56;14.00;;;9.38;;
6979;SDS011;3530;52.832;10.680;2022-08-19T12:44:24;12.60;;;9.73;;
6979;SDS011;3530;52.832;10.680;2022-08-19T12:46:50;17.50;;;11.13;;
6979;SDS011;3530;52.832;10.680;2022-08-19T12:49:15;17.63;;;10.57;;
6979;SDS011;3530;52.832;10.680;2022-08-19T12:51:41;12.85;;;8.65;;
6979;SDS011;3530;52.832;10.680;2022-08-19T12:54:06;14.70;;;9.80;;
6979;SDS011;3530;52.832;10.680;2022-08-19T12:56:32;15.18;;;11.70;;
6979;SDS011;3530;52.832;10.680;2022-08-19T12:59:00;13.85;;;10.15;;
6979;SDS011;3530;52.832;10.680;2022-08-19T13:01:26;13.25;;;9.25;;
6979;SDS011;3530;52.832;10.680;2022-08-19T13:03:57;11.45;;;9.07;;
6979;SDS011;3530;52.832;10.680;2022-08-19T13:06:25;9.10;;;7.57;;
6979;SDS011;3530;52.832;10.680;2022-08-19T13:08:51;10.23;;;8.43;;
6979;SDS011;3530;52.832;10.680;2022-08-19T13:11:17;16.38;;;10.40;;
6979;SDS011;3530;52.832;10.680;2022-08-19T13:13:45;11.75;;;7.90;;
6979;SDS011;3530;52.832;10.680;2022-08-19T13:16:11;8.77;;;7.20;;
6979;SDS011;3530;52.832;10.680;2022-08-19T13:18:38;10.20;;;7.88;;
6979;SDS011;3530;52.832;10.680;2022-08-19T13:21:04;8.90;;;7.07;;
6979;SDS011;3530;52.832;10.680;2022-08-19T13:23:31;11.82;;;7.80;;
6979;SDS011;3530;52.832;10.680;2022-08-19T13:25:57;7.10;;;6.10;;
6979;SDS011;3530;52.832;10.680;2022-08-19T13:28:23;11.10;;;7.90;;
6979;SDS011;3530;52.832;10.680;2022-08-19T13:30:49;10.77;;;8.15;;
6979;SDS011;3530;52.832;10.680;2022-08-19T13:33:32;12.88;;;9.30;;
6979;SDS011;3530;52.832;10.680;2022-08-19T13:35:59;14.45;;;8.68;;
6979;SDS011;3530;52.832;10.680;2022-08-19T13:38:25;11.73;;;9.52;;
6979;SDS011;3530;52.832;10.680;2022-08-19T13:40:53;7.53;;;6.07;;
6979;SDS011;3530;52.832;10.680;2022-08-19T13:43:20;12.93;;;8.07;;
6979;SDS011;3530;52.832;10.680;2022-08-19T13:45:53;11.15;;;8.60;;
6979;SDS011;3530;52.832;10.680;2022-08-19T13:48:20;11.63;;;8.98;;
6979;SDS011;3530;52.832;10.680;2022-08-19T13:50:45;11.25;;;7.97;;
6979;SDS011;3530;52.832;10.680;2022-08-19T13:53:13;8.30;;;6.78;;
6979;SDS011;3530;52.832;10.680;2022-08-19T13:55:39;8.35;;;7.53;;
6979;SDS011;3530;52.832;10.680;2022-08-19T13:58:06;10.65;;;7.55;;
6979;SDS011;3530;52.832;10.680;2022-08-19T14:00:33;8.88;;;7.35;;
6979;SDS011;3530;52.832;10.680;2022-08-19T14:03:00;11.32;;;9.23;;
6979;SDS011;3530;52.832;10.680;2022-08-19T14:05:28;8.93;;;7.47;;
6979;SDS011;3530;52.832;10.680;2022-08-19T14:07:54;9.68;;;7.13;;
6979;SDS011;3530;52.832;10.680;2022-08-19T14:10:20;7.88;;;6.88;;
6979;SDS011;3530;52.832;10.680;2022-08-19T14:12:46;8.48;;;7.57;;
6979;SDS011;3530;52.832;10.680;2022-08-19T14:15:13;9.70;;;7.38;;
6979;SDS011;3530;52.832;10.680;2022-08-19T14:17:39;9.30;;;7.30;;
6979;SDS011;3530;52.832;10.680;2022-08-19T14:20:06;11.30;;;7.68;;
6979;SDS011;3530;52.832;10.680;2022-08-19T14:22:33;6.90;;;6.20;;
6979;SDS011;3530;52.832;10.680;2022-08-19T14:25:04;7.05;;;6.25;;
6979;SDS011;3530;52.832;10.680;2022-08-19T14:27:32;9.38;;;6.80;;
6979;SDS011;3530;52.832;10.680;2022-08-19T14:29:58;10.98;;;8.18;;
6979;SDS011;3530;52.832;10.680;2022-08-19T14:32:24;9.18;;;6.80;;
6979;SDS011;3530;52.832;10.680;2022-08-19T14:34:52;11.88;;;8.02;;
6979;SDS011;3530;52.832;10.680;2022-08-19T14:37:18;11.75;;;7.85;;
6979;SDS011;3530;52.832;10.680;2022-08-19T14:39:44;6.93;;;6.28;;
6979;SDS011;3530;52.832;10.680;2022-08-19T14:42:11;8.05;;;6.93;;
6979;SDS011;3530;52.832;10.680;2022-08-19T14:44:39;9.98;;;8.93;;
6979;SDS011;3530;52.832;10.680;2022-08-19T14:47:04;12.93;;;8.77;;
6979;SDS011;3530;52.832;10.680;2022-08-19T14:49:31;10.10;;;8.88;;
6979;SDS011;3530;52.832;10.680;2022-08-19T14:51:57;11.65;;;8.48;;
6979;SDS011;3530;52.832;10.680;2022-08-19T14:54:23;11.82;;;8.88;;
6979;SDS011;3530;52.832;10.680;2022-08-19T14:56:49;9.35;;;7.03;;
6979;SDS011;3530;52.832;10.680;2022-08-19T14:59:15;12.02;;;9.30;;
6979;SDS011;3530;52.832;10.680;2022-08-19T15:01:40;14.88;;;9.85;;
6979;SDS011;3530;52.832;10.680;2022-08-19T15:04:05;12.80;;;10.18;;
6979;SDS011;3530;52.832;10.680;2022-08-19T15:06:31;13.95;;;10.52;;
6979;SDS011;3530;52.832;10.680;2022-08-19T15:08:56;13.50;;;9.18;;
6979;SDS011;3530;52.832;10.680;2022-08-19T15:11:23;10.68;;;8.13;;